<?xml version="1.0" encoding="UTF-8" standalone="no" ?>
<gpx xmlns="http://www.topografix.com/GPX/1/1" xmlns:xsi="http://www.w3.org/2001/XMLSchema-instance" xsi:schemaLocation="http://www.topografix.com/GPX/1/1 http://www.topografix.com/GPX/1/1/gpx.xsd" version="1.1" creator="VisuGPX - https://www.visugpx.com">
  <metadata>
    <name>rando-stbrolarde-40km</name>
    <desc><![CDATA[rando 2009 de siant brolarde 40 km par julien
une partie roulante, l'autre bien ]]></desc>
  </metadata>
  <trk>
    <name><![CDATA[Saint_broladre_40_km on GPSies.com]]></name>
    <trkseg>
      <trkpt lat="48.58673" lon="-1.65821">
        <ele>7.8</ele>
        <time>2009-07-16T16:18:45Z</time>
      </trkpt>
      <trkpt lat="48.58538" lon="-1.66022">
        <ele>11.5</ele>
        <time>2009-07-16T16:20:01Z</time>
      </trkpt>
      <trkpt lat="48.58415" lon="-1.66166">
        <ele>9.1</ele>
        <time>2009-07-16T16:21:03Z</time>
      </trkpt>
      <trkpt lat="48.58255" lon="-1.66259">
        <ele>17.2</ele>
        <time>2009-07-16T16:22:12Z</time>
      </trkpt>
      <trkpt lat="48.58099" lon="-1.66417">
        <ele>38</ele>
        <time>2009-07-16T16:23:27Z</time>
      </trkpt>
      <trkpt lat="48.57928" lon="-1.66489">
        <ele>44.2</ele>
        <time>2009-07-16T16:24:38Z</time>
      </trkpt>
      <trkpt lat="48.57774" lon="-1.66555">
        <ele>48.2</ele>
        <time>2009-07-16T16:25:42Z</time>
      </trkpt>
      <trkpt lat="48.57708" lon="-1.66362">
        <ele>57</ele>
        <time>2009-07-16T16:26:40Z</time>
      </trkpt>
      <trkpt lat="48.57767" lon="-1.66107">
        <ele>70.3</ele>
        <time>2009-07-16T16:27:51Z</time>
      </trkpt>
      <trkpt lat="48.57679" lon="-1.65991">
        <ele>69.9</ele>
        <time>2009-07-16T16:28:38Z</time>
      </trkpt>
      <trkpt lat="48.57485" lon="-1.66072">
        <ele>74.6</ele>
        <time>2009-07-16T16:29:59Z</time>
      </trkpt>
      <trkpt lat="48.57325" lon="-1.66142">
        <ele>74.7</ele>
        <time>2009-07-16T16:31:05Z</time>
      </trkpt>
      <trkpt lat="48.5716" lon="-1.66115">
        <ele>73</ele>
        <time>2009-07-16T16:32:12Z</time>
      </trkpt>
      <trkpt lat="48.56989" lon="-1.66045">
        <ele>75.8</ele>
        <time>2009-07-16T16:33:23Z</time>
      </trkpt>
      <trkpt lat="48.56827" lon="-1.66055">
        <ele>78</ele>
        <time>2009-07-16T16:34:28Z</time>
      </trkpt>
      <trkpt lat="48.56687" lon="-1.65963">
        <ele>81</ele>
        <time>2009-07-16T16:35:29Z</time>
      </trkpt>
      <trkpt lat="48.56623" lon="-1.65767">
        <ele>80.6</ele>
        <time>2009-07-16T16:36:27Z</time>
      </trkpt>
      <trkpt lat="48.56688" lon="-1.65641">
        <ele>76.3</ele>
        <time>2009-07-16T16:37:09Z</time>
      </trkpt>
      <trkpt lat="48.56603" lon="-1.6543">
        <ele>77.1</ele>
        <time>2009-07-16T16:38:14Z</time>
      </trkpt>
      <trkpt lat="48.56536" lon="-1.65228">
        <ele>76.7</ele>
        <time>2009-07-16T16:39:14Z</time>
      </trkpt>
      <trkpt lat="48.56582" lon="-1.64959">
        <ele>79</ele>
        <time>2009-07-16T16:40:28Z</time>
      </trkpt>
      <trkpt lat="48.56574" lon="-1.64721">
        <ele>78.3</ele>
        <time>2009-07-16T16:41:31Z</time>
      </trkpt>
      <trkpt lat="48.56537" lon="-1.64477">
        <ele>79</ele>
        <time>2009-07-16T16:42:37Z</time>
      </trkpt>
      <trkpt lat="48.56682" lon="-1.64434">
        <ele>76.8</ele>
        <time>2009-07-16T16:43:36Z</time>
      </trkpt>
      <trkpt lat="48.56694" lon="-1.64196">
        <ele>72.1</ele>
        <time>2009-07-16T16:44:40Z</time>
      </trkpt>
      <trkpt lat="48.56657" lon="-1.63949">
        <ele>74.8</ele>
        <time>2009-07-16T16:45:47Z</time>
      </trkpt>
      <trkpt lat="48.56591" lon="-1.63703">
        <ele>76.7</ele>
        <time>2009-07-16T16:46:57Z</time>
      </trkpt>
      <trkpt lat="48.56639" lon="-1.63453">
        <ele>79.7</ele>
        <time>2009-07-16T16:48:06Z</time>
      </trkpt>
      <trkpt lat="48.56704" lon="-1.63197">
        <ele>80.9</ele>
        <time>2009-07-16T16:49:19Z</time>
      </trkpt>
      <trkpt lat="48.56772" lon="-1.6295">
        <ele>83.4</ele>
        <time>2009-07-16T16:50:29Z</time>
      </trkpt>
      <trkpt lat="48.56815" lon="-1.62713">
        <ele>84</ele>
        <time>2009-07-16T16:51:35Z</time>
      </trkpt>
      <trkpt lat="48.56868" lon="-1.62478">
        <ele>84</ele>
        <time>2009-07-16T16:52:40Z</time>
      </trkpt>
      <trkpt lat="48.56895" lon="-1.62307">
        <ele>85</ele>
        <time>2009-07-16T16:53:27Z</time>
      </trkpt>
      <trkpt lat="48.56927" lon="-1.62091">
        <ele>88</ele>
        <time>2009-07-16T16:54:26Z</time>
      </trkpt>
      <trkpt lat="48.5682" lon="-1.61958">
        <ele>89</ele>
        <time>2009-07-16T16:55:21Z</time>
      </trkpt>
      <trkpt lat="48.56666" lon="-1.61896">
        <ele>89</ele>
        <time>2009-07-16T16:56:25Z</time>
      </trkpt>
      <trkpt lat="48.56516" lon="-1.61953">
        <ele>89.3</ele>
        <time>2009-07-16T16:57:27Z</time>
      </trkpt>
      <trkpt lat="48.56351" lon="-1.6194">
        <ele>90.2</ele>
        <time>2009-07-16T16:58:33Z</time>
      </trkpt>
      <trkpt lat="48.56187" lon="-1.61907">
        <ele>86.2</ele>
        <time>2009-07-16T16:59:39Z</time>
      </trkpt>
      <trkpt lat="48.56088" lon="-1.62046">
        <ele>90</ele>
        <time>2009-07-16T17:00:33Z</time>
      </trkpt>
      <trkpt lat="48.55993" lon="-1.62171">
        <ele>86.5</ele>
        <time>2009-07-16T17:01:24Z</time>
      </trkpt>
      <trkpt lat="48.55837" lon="-1.62138">
        <ele>79.3</ele>
        <time>2009-07-16T17:02:27Z</time>
      </trkpt>
      <trkpt lat="48.55679" lon="-1.6216">
        <ele>75.9</ele>
        <time>2009-07-16T17:03:30Z</time>
      </trkpt>
      <trkpt lat="48.55534" lon="-1.62106">
        <ele>76.6</ele>
        <time>2009-07-16T17:04:30Z</time>
      </trkpt>
      <trkpt lat="48.55455" lon="-1.61886">
        <ele>74</ele>
        <time>2009-07-16T17:05:36Z</time>
      </trkpt>
      <trkpt lat="48.55442" lon="-1.61693">
        <ele>72.1</ele>
        <time>2009-07-16T17:06:28Z</time>
      </trkpt>
      <trkpt lat="48.55485" lon="-1.61485">
        <ele>71.3</ele>
        <time>2009-07-16T17:07:25Z</time>
      </trkpt>
      <trkpt lat="48.55567" lon="-1.61271">
        <ele>71.6</ele>
        <time>2009-07-16T17:08:31Z</time>
      </trkpt>
      <trkpt lat="48.55452" lon="-1.61139">
        <ele>71.7</ele>
        <time>2009-07-16T17:09:29Z</time>
      </trkpt>
      <trkpt lat="48.5561" lon="-1.61132">
        <ele>72</ele>
        <time>2009-07-16T17:10:32Z</time>
      </trkpt>
      <trkpt lat="48.55647" lon="-1.60987">
        <ele>71.7</ele>
        <time>2009-07-16T17:11:13Z</time>
      </trkpt>
      <trkpt lat="48.55572" lon="-1.60769">
        <ele>74.4</ele>
        <time>2009-07-16T17:12:18Z</time>
      </trkpt>
      <trkpt lat="48.55497" lon="-1.60547">
        <ele>74.1</ele>
        <time>2009-07-16T17:13:24Z</time>
      </trkpt>
      <trkpt lat="48.55523" lon="-1.60341">
        <ele>72</ele>
        <time>2009-07-16T17:14:20Z</time>
      </trkpt>
      <trkpt lat="48.55597" lon="-1.60153">
        <ele>69</ele>
        <time>2009-07-16T17:15:18Z</time>
      </trkpt>
      <trkpt lat="48.5573" lon="-1.60018">
        <ele>66.4</ele>
        <time>2009-07-16T17:16:22Z</time>
      </trkpt>
      <trkpt lat="48.55881" lon="-1.60014">
        <ele>61.3</ele>
        <time>2009-07-16T17:17:22Z</time>
      </trkpt>
      <trkpt lat="48.56018" lon="-1.59945">
        <ele>68</ele>
        <time>2009-07-16T17:18:20Z</time>
      </trkpt>
      <trkpt lat="48.56097" lon="-1.59724">
        <ele>64</ele>
        <time>2009-07-16T17:19:27Z</time>
      </trkpt>
      <trkpt lat="48.55997" lon="-1.59578">
        <ele>61.3</ele>
        <time>2009-07-16T17:20:22Z</time>
      </trkpt>
      <trkpt lat="48.55952" lon="-1.5934">
        <ele>56.9</ele>
        <time>2009-07-16T17:21:28Z</time>
      </trkpt>
      <trkpt lat="48.55839" lon="-1.59188">
        <ele>56.8</ele>
        <time>2009-07-16T17:22:29Z</time>
      </trkpt>
      <trkpt lat="48.55824" lon="-1.5899">
        <ele>53</ele>
        <time>2009-07-16T17:23:21Z</time>
      </trkpt>
      <trkpt lat="48.55697" lon="-1.58846">
        <ele>53.1</ele>
        <time>2009-07-16T17:24:25Z</time>
      </trkpt>
      <trkpt lat="48.55607" lon="-1.58638">
        <ele>53.2</ele>
        <time>2009-07-16T17:25:31Z</time>
      </trkpt>
      <trkpt lat="48.55635" lon="-1.58444">
        <ele>46.8</ele>
        <time>2009-07-16T17:26:23Z</time>
      </trkpt>
      <trkpt lat="48.55564" lon="-1.58248">
        <ele>49.3</ele>
        <time>2009-07-16T17:27:23Z</time>
      </trkpt>
      <trkpt lat="48.55472" lon="-1.58064">
        <ele>50.2</ele>
        <time>2009-07-16T17:28:24Z</time>
      </trkpt>
      <trkpt lat="48.55425" lon="-1.58249">
        <ele>52.3</ele>
        <time>2009-07-16T17:29:16Z</time>
      </trkpt>
      <trkpt lat="48.553" lon="-1.58408">
        <ele>63.3</ele>
        <time>2009-07-16T17:30:22Z</time>
      </trkpt>
      <trkpt lat="48.55156" lon="-1.58375">
        <ele>67</ele>
        <time>2009-07-16T17:31:20Z</time>
      </trkpt>
      <trkpt lat="48.55154" lon="-1.58133">
        <ele>57.7</ele>
        <time>2009-07-16T17:32:24Z</time>
      </trkpt>
      <trkpt lat="48.55021" lon="-1.58012">
        <ele>44.5</ele>
        <time>2009-07-16T17:33:26Z</time>
      </trkpt>
      <trkpt lat="48.54991" lon="-1.57847">
        <ele>38.8</ele>
        <time>2009-07-16T17:34:12Z</time>
      </trkpt>
      <trkpt lat="48.55046" lon="-1.5762">
        <ele>38.7</ele>
        <time>2009-07-16T17:35:16Z</time>
      </trkpt>
      <trkpt lat="48.55071" lon="-1.57411">
        <ele>36.6</ele>
        <time>2009-07-16T17:36:12Z</time>
      </trkpt>
      <trkpt lat="48.54916" lon="-1.57356">
        <ele>30</ele>
        <time>2009-07-16T17:37:16Z</time>
      </trkpt>
      <trkpt lat="48.54797" lon="-1.57245">
        <ele>24.7</ele>
        <time>2009-07-16T17:38:12Z</time>
      </trkpt>
      <trkpt lat="48.54678" lon="-1.57118">
        <ele>20.1</ele>
        <time>2009-07-16T17:39:10Z</time>
      </trkpt>
      <trkpt lat="48.54696" lon="-1.56907">
        <ele>17.7</ele>
        <time>2009-07-16T17:40:06Z</time>
      </trkpt>
      <trkpt lat="48.54562" lon="-1.56771">
        <ele>23.2</ele>
        <time>2009-07-16T17:41:11Z</time>
      </trkpt>
      <trkpt lat="48.54557" lon="-1.56595">
        <ele>25.9</ele>
        <time>2009-07-16T17:41:58Z</time>
      </trkpt>
      <trkpt lat="48.54597" lon="-1.56386">
        <ele>24.5</ele>
        <time>2009-07-16T17:42:55Z</time>
      </trkpt>
      <trkpt lat="48.54553" lon="-1.56155">
        <ele>25.1</ele>
        <time>2009-07-16T17:43:59Z</time>
      </trkpt>
      <trkpt lat="48.54704" lon="-1.56057">
        <ele>21.4</ele>
        <time>2009-07-16T17:45:05Z</time>
      </trkpt>
      <trkpt lat="48.54846" lon="-1.55961">
        <ele>15.6</ele>
        <time>2009-07-16T17:46:07Z</time>
      </trkpt>
      <trkpt lat="48.54759" lon="-1.55765">
        <ele>15.3</ele>
        <time>2009-07-16T17:47:10Z</time>
      </trkpt>
      <trkpt lat="48.54833" lon="-1.55632">
        <ele>27.2</ele>
        <time>2009-07-16T17:47:56Z</time>
      </trkpt>
      <trkpt lat="48.54802" lon="-1.55406">
        <ele>24.3</ele>
        <time>2009-07-16T17:48:57Z</time>
      </trkpt>
      <trkpt lat="48.54762" lon="-1.55177">
        <ele>20.2</ele>
        <time>2009-07-16T17:50:00Z</time>
      </trkpt>
      <trkpt lat="48.54833" lon="-1.55027">
        <ele>19.9</ele>
        <time>2009-07-16T17:50:48Z</time>
      </trkpt>
      <trkpt lat="48.54972" lon="-1.54921">
        <ele>24.1</ele>
        <time>2009-07-16T17:51:51Z</time>
      </trkpt>
      <trkpt lat="48.55074" lon="-1.55077">
        <ele>28.9</ele>
        <time>2009-07-16T17:52:49Z</time>
      </trkpt>
      <trkpt lat="48.55226" lon="-1.55015">
        <ele>31</ele>
        <time>2009-07-16T17:53:52Z</time>
      </trkpt>
      <trkpt lat="48.55323" lon="-1.54903">
        <ele>33</ele>
        <time>2009-07-16T17:54:41Z</time>
      </trkpt>
      <trkpt lat="48.55302" lon="-1.54659">
        <ele>35</ele>
        <time>2009-07-16T17:55:46Z</time>
      </trkpt>
      <trkpt lat="48.55256" lon="-1.5442">
        <ele>35.1</ele>
        <time>2009-07-16T17:56:52Z</time>
      </trkpt>
      <trkpt lat="48.55259" lon="-1.54179">
        <ele>29</ele>
        <time>2009-07-16T17:57:56Z</time>
      </trkpt>
      <trkpt lat="48.55313" lon="-1.53998">
        <ele>23.5</ele>
        <time>2009-07-16T17:58:48Z</time>
      </trkpt>
      <trkpt lat="48.55474" lon="-1.53967">
        <ele>12.9</ele>
        <time>2009-07-16T17:59:53Z</time>
      </trkpt>
      <trkpt lat="48.55554" lon="-1.53847">
        <ele>8.1</ele>
        <time>2009-07-16T18:00:38Z</time>
      </trkpt>
      <trkpt lat="48.55533" lon="-1.53627">
        <ele>8.3</ele>
        <time>2009-07-16T18:01:37Z</time>
      </trkpt>
      <trkpt lat="48.55452" lon="-1.53429">
        <ele>8.3</ele>
        <time>2009-07-16T18:02:39Z</time>
      </trkpt>
      <trkpt lat="48.55333" lon="-1.53313">
        <ele>8</ele>
        <time>2009-07-16T18:03:36Z</time>
      </trkpt>
      <trkpt lat="48.55389" lon="-1.53082">
        <ele>8</ele>
        <time>2009-07-16T18:04:41Z</time>
      </trkpt>
      <trkpt lat="48.55504" lon="-1.52925">
        <ele>9.2</ele>
        <time>2009-07-16T18:05:43Z</time>
      </trkpt>
      <trkpt lat="48.55625" lon="-1.52768">
        <ele>8.3</ele>
        <time>2009-07-16T18:06:47Z</time>
      </trkpt>
      <trkpt lat="48.55673" lon="-1.52598">
        <ele>8</ele>
        <time>2009-07-16T18:07:36Z</time>
      </trkpt>
      <trkpt lat="48.55666" lon="-1.52372">
        <ele>8</ele>
        <time>2009-07-16T18:08:36Z</time>
      </trkpt>
      <trkpt lat="48.558" lon="-1.52231">
        <ele>8</ele>
        <time>2009-07-16T18:09:41Z</time>
      </trkpt>
      <trkpt lat="48.55749" lon="-1.5206">
        <ele>8</ele>
        <time>2009-07-16T18:10:31Z</time>
      </trkpt>
      <trkpt lat="48.55648" lon="-1.51877">
        <ele>8.1</ele>
        <time>2009-07-16T18:11:34Z</time>
      </trkpt>
      <trkpt lat="48.55522" lon="-1.51734">
        <ele>8.5</ele>
        <time>2009-07-16T18:12:37Z</time>
      </trkpt>
      <trkpt lat="48.55425" lon="-1.51548">
        <ele>8.1</ele>
        <time>2009-07-16T18:13:40Z</time>
      </trkpt>
      <trkpt lat="48.55478" lon="-1.51495">
        <ele>8.1</ele>
        <time>2009-07-16T18:14:05Z</time>
      </trkpt>
      <trkpt lat="48.55631" lon="-1.51568">
        <ele>6.7</ele>
        <time>2009-07-16T18:15:09Z</time>
      </trkpt>
      <trkpt lat="48.55785" lon="-1.51646">
        <ele>7.4</ele>
        <time>2009-07-16T18:16:14Z</time>
      </trkpt>
      <trkpt lat="48.55938" lon="-1.51714">
        <ele>7.2</ele>
        <time>2009-07-16T18:17:18Z</time>
      </trkpt>
      <trkpt lat="48.56103" lon="-1.51755">
        <ele>7.4</ele>
        <time>2009-07-16T18:18:25Z</time>
      </trkpt>
      <trkpt lat="48.56269" lon="-1.51777">
        <ele>7.9</ele>
        <time>2009-07-16T18:19:32Z</time>
      </trkpt>
      <trkpt lat="48.56431" lon="-1.51805">
        <ele>7.4</ele>
        <time>2009-07-16T18:20:37Z</time>
      </trkpt>
      <trkpt lat="48.56584" lon="-1.51873">
        <ele>7.8</ele>
        <time>2009-07-16T18:21:41Z</time>
      </trkpt>
      <trkpt lat="48.56733" lon="-1.51978">
        <ele>7.3</ele>
        <time>2009-07-16T18:22:47Z</time>
      </trkpt>
      <trkpt lat="48.56868" lon="-1.52135">
        <ele>7.4</ele>
        <time>2009-07-16T18:23:55Z</time>
      </trkpt>
      <trkpt lat="48.57012" lon="-1.52267">
        <ele>7</ele>
        <time>2009-07-16T18:25:02Z</time>
      </trkpt>
      <trkpt lat="48.57166" lon="-1.52325">
        <ele>6.4</ele>
        <time>2009-07-16T18:26:06Z</time>
      </trkpt>
      <trkpt lat="48.57256" lon="-1.52515">
        <ele>7.6</ele>
        <time>2009-07-16T18:27:08Z</time>
      </trkpt>
      <trkpt lat="48.57394" lon="-1.52632">
        <ele>8</ele>
        <time>2009-07-16T18:28:11Z</time>
      </trkpt>
      <trkpt lat="48.57538" lon="-1.52751">
        <ele>7.6</ele>
        <time>2009-07-16T18:29:17Z</time>
      </trkpt>
      <trkpt lat="48.57623" lon="-1.52948">
        <ele>7</ele>
        <time>2009-07-16T18:30:19Z</time>
      </trkpt>
      <trkpt lat="48.57749" lon="-1.5307">
        <ele>8</ele>
        <time>2009-07-16T18:31:19Z</time>
      </trkpt>
      <trkpt lat="48.57878" lon="-1.53216">
        <ele>7.1</ele>
        <time>2009-07-16T18:32:24Z</time>
      </trkpt>
      <trkpt lat="48.57911" lon="-1.53399">
        <ele>7.1</ele>
        <time>2009-07-16T18:33:14Z</time>
      </trkpt>
      <trkpt lat="48.57953" lon="-1.53604">
        <ele>7.8</ele>
        <time>2009-07-16T18:34:11Z</time>
      </trkpt>
      <trkpt lat="48.57978" lon="-1.53799">
        <ele>8.2</ele>
        <time>2009-07-16T18:35:03Z</time>
      </trkpt>
      <trkpt lat="48.57938" lon="-1.54036">
        <ele>8.5</ele>
        <time>2009-07-16T18:36:08Z</time>
      </trkpt>
      <trkpt lat="48.57974" lon="-1.54263">
        <ele>8.5</ele>
        <time>2009-07-16T18:37:10Z</time>
      </trkpt>
      <trkpt lat="48.57953" lon="-1.54498">
        <ele>8.3</ele>
        <time>2009-07-16T18:38:13Z</time>
      </trkpt>
      <trkpt lat="48.57926" lon="-1.54729">
        <ele>8.2</ele>
        <time>2009-07-16T18:39:15Z</time>
      </trkpt>
      <trkpt lat="48.57938" lon="-1.54972">
        <ele>8.5</ele>
        <time>2009-07-16T18:40:19Z</time>
      </trkpt>
      <trkpt lat="48.5804" lon="-1.55147">
        <ele>7.6</ele>
        <time>2009-07-16T18:41:21Z</time>
      </trkpt>
      <trkpt lat="48.58071" lon="-1.55373">
        <ele>7.9</ele>
        <time>2009-07-16T18:42:22Z</time>
      </trkpt>
      <trkpt lat="48.5815" lon="-1.55537">
        <ele>8.1</ele>
        <time>2009-07-16T18:43:16Z</time>
      </trkpt>
      <trkpt lat="48.58196" lon="-1.55764">
        <ele>8.9</ele>
        <time>2009-07-16T18:44:19Z</time>
      </trkpt>
      <trkpt lat="48.58212" lon="-1.55993">
        <ele>7</ele>
        <time>2009-07-16T18:45:20Z</time>
      </trkpt>
      <trkpt lat="48.58211" lon="-1.56224">
        <ele>7</ele>
        <time>2009-07-16T18:46:21Z</time>
      </trkpt>
      <trkpt lat="48.58235" lon="-1.56445">
        <ele>7.5</ele>
        <time>2009-07-16T18:47:20Z</time>
      </trkpt>
      <trkpt lat="48.58367" lon="-1.56564">
        <ele>8.2</ele>
        <time>2009-07-16T18:48:22Z</time>
      </trkpt>
      <trkpt lat="48.58516" lon="-1.56613">
        <ele>8.9</ele>
        <time>2009-07-16T18:49:23Z</time>
      </trkpt>
      <trkpt lat="48.58567" lon="-1.56665">
        <ele>7</ele>
        <time>2009-07-16T18:49:47Z</time>
      </trkpt>
      <trkpt lat="48.58442" lon="-1.56822">
        <ele>7.7</ele>
        <time>2009-07-16T18:50:53Z</time>
      </trkpt>
      <trkpt lat="48.58313" lon="-1.56988">
        <ele>13</ele>
        <time>2009-07-16T18:52:00Z</time>
      </trkpt>
      <trkpt lat="48.58253" lon="-1.57137">
        <ele>23.6</ele>
        <time>2009-07-16T18:52:47Z</time>
      </trkpt>
      <trkpt lat="48.58289" lon="-1.57373">
        <ele>18</ele>
        <time>2009-07-16T18:53:51Z</time>
      </trkpt>
      <trkpt lat="48.5833" lon="-1.57563">
        <ele>13.6</ele>
        <time>2009-07-16T18:54:44Z</time>
      </trkpt>
      <trkpt lat="48.58295" lon="-1.57718">
        <ele>39.4</ele>
        <time>2009-07-16T18:55:27Z</time>
      </trkpt>
      <trkpt lat="48.58295" lon="-1.57967">
        <ele>60.1</ele>
        <time>2009-07-16T18:56:33Z</time>
      </trkpt>
      <trkpt lat="48.58306" lon="-1.58144">
        <ele>64</ele>
        <time>2009-07-16T18:57:20Z</time>
      </trkpt>
      <trkpt lat="48.58301" lon="-1.58289">
        <ele>65.1</ele>
        <time>2009-07-16T18:57:58Z</time>
      </trkpt>
      <trkpt lat="48.58456" lon="-1.58368">
        <ele>61.4</ele>
        <time>2009-07-16T18:59:04Z</time>
      </trkpt>
      <trkpt lat="48.58452" lon="-1.58557">
        <ele>57.7</ele>
        <time>2009-07-16T18:59:54Z</time>
      </trkpt>
      <trkpt lat="48.5845" lon="-1.58775">
        <ele>58.7</ele>
        <time>2009-07-16T19:00:52Z</time>
      </trkpt>
      <trkpt lat="48.58426" lon="-1.59021">
        <ele>62</ele>
        <time>2009-07-16T19:01:58Z</time>
      </trkpt>
      <trkpt lat="48.58405" lon="-1.5927">
        <ele>64.4</ele>
        <time>2009-07-16T19:03:04Z</time>
      </trkpt>
      <trkpt lat="48.58351" lon="-1.59457">
        <ele>65.2</ele>
        <time>2009-07-16T19:03:58Z</time>
      </trkpt>
      <trkpt lat="48.58352" lon="-1.59652">
        <ele>62.7</ele>
        <time>2009-07-16T19:04:50Z</time>
      </trkpt>
      <trkpt lat="48.58354" lon="-1.59865">
        <ele>59</ele>
        <time>2009-07-16T19:05:46Z</time>
      </trkpt>
      <trkpt lat="48.58368" lon="-1.6007">
        <ele>54.3</ele>
        <time>2009-07-16T19:06:41Z</time>
      </trkpt>
      <trkpt lat="48.58282" lon="-1.60274">
        <ele>66.8</ele>
        <time>2009-07-16T19:07:45Z</time>
      </trkpt>
      <trkpt lat="48.58329" lon="-1.60476">
        <ele>63</ele>
        <time>2009-07-16T19:08:41Z</time>
      </trkpt>
      <trkpt lat="48.5843" lon="-1.60576">
        <ele>63</ele>
        <time>2009-07-16T19:09:30Z</time>
      </trkpt>
      <trkpt lat="48.58589" lon="-1.60535">
        <ele>49.6</ele>
        <time>2009-07-16T19:10:34Z</time>
      </trkpt>
      <trkpt lat="48.58734" lon="-1.60492">
        <ele>41.4</ele>
        <time>2009-07-16T19:11:33Z</time>
      </trkpt>
      <trkpt lat="48.58864" lon="-1.60562">
        <ele>31.5</ele>
        <time>2009-07-16T19:12:29Z</time>
      </trkpt>
      <trkpt lat="48.58788" lon="-1.60375">
        <ele>39.7</ele>
        <time>2009-07-16T19:13:27Z</time>
      </trkpt>
      <trkpt lat="48.58797" lon="-1.60188">
        <ele>41.3</ele>
        <time>2009-07-16T19:14:16Z</time>
      </trkpt>
      <trkpt lat="48.58867" lon="-1.60006">
        <ele>57.8</ele>
        <time>2009-07-16T19:15:12Z</time>
      </trkpt>
      <trkpt lat="48.59019" lon="-1.60042">
        <ele>62.2</ele>
        <time>2009-07-16T19:16:14Z</time>
      </trkpt>
      <trkpt lat="48.59185" lon="-1.60019">
        <ele>74.1</ele>
        <time>2009-07-16T19:17:21Z</time>
      </trkpt>
      <trkpt lat="48.59274" lon="-1.60108">
        <ele>75.2</ele>
        <time>2009-07-16T19:18:03Z</time>
      </trkpt>
      <trkpt lat="48.59215" lon="-1.60311">
        <ele>68.2</ele>
        <time>2009-07-16T19:19:02Z</time>
      </trkpt>
      <trkpt lat="48.59082" lon="-1.60383">
        <ele>55.9</ele>
        <time>2009-07-16T19:19:59Z</time>
      </trkpt>
      <trkpt lat="48.59066" lon="-1.60554">
        <ele>47.8</ele>
        <time>2009-07-16T19:20:44Z</time>
      </trkpt>
      <trkpt lat="48.59149" lon="-1.60759">
        <ele>41.8</ele>
        <time>2009-07-16T19:21:48Z</time>
      </trkpt>
      <trkpt lat="48.59253" lon="-1.60946">
        <ele>43.4</ele>
        <time>2009-07-16T19:22:53Z</time>
      </trkpt>
      <trkpt lat="48.59325" lon="-1.61147">
        <ele>29.4</ele>
        <time>2009-07-16T19:23:53Z</time>
      </trkpt>
      <trkpt lat="48.59474" lon="-1.61219">
        <ele>10.5</ele>
        <time>2009-07-16T19:24:56Z</time>
      </trkpt>
      <trkpt lat="48.59428" lon="-1.61392">
        <ele>16.1</ele>
        <time>2009-07-16T19:25:45Z</time>
      </trkpt>
      <trkpt lat="48.59288" lon="-1.61482">
        <ele>41.1</ele>
        <time>2009-07-16T19:26:46Z</time>
      </trkpt>
      <trkpt lat="48.59139" lon="-1.61602">
        <ele>49.7</ele>
        <time>2009-07-16T19:27:54Z</time>
      </trkpt>
      <trkpt lat="48.59003" lon="-1.61726">
        <ele>50.2</ele>
        <time>2009-07-16T19:28:57Z</time>
      </trkpt>
      <trkpt lat="48.58872" lon="-1.61795">
        <ele>59.6</ele>
        <time>2009-07-16T19:29:53Z</time>
      </trkpt>
      <trkpt lat="48.58774" lon="-1.62004">
        <ele>71.1</ele>
        <time>2009-07-16T19:31:00Z</time>
      </trkpt>
      <trkpt lat="48.58879" lon="-1.62077">
        <ele>63.7</ele>
        <time>2009-07-16T19:31:47Z</time>
      </trkpt>
      <trkpt lat="48.59039" lon="-1.62068">
        <ele>65.2</ele>
        <time>2009-07-16T19:32:51Z</time>
      </trkpt>
      <trkpt lat="48.59109" lon="-1.62182">
        <ele>65</ele>
        <time>2009-07-16T19:33:32Z</time>
      </trkpt>
      <trkpt lat="48.59009" lon="-1.62364">
        <ele>64</ele>
        <time>2009-07-16T19:34:35Z</time>
      </trkpt>
      <trkpt lat="48.58999" lon="-1.62595">
        <ele>66.4</ele>
        <time>2009-07-16T19:35:36Z</time>
      </trkpt>
      <trkpt lat="48.58853" lon="-1.62695">
        <ele>66</ele>
        <time>2009-07-16T19:36:40Z</time>
      </trkpt>
      <trkpt lat="48.58704" lon="-1.6279">
        <ele>68.2</ele>
        <time>2009-07-16T19:37:45Z</time>
      </trkpt>
      <trkpt lat="48.58539" lon="-1.62846">
        <ele>80.2</ele>
        <time>2009-07-16T19:38:53Z</time>
      </trkpt>
      <trkpt lat="48.58473" lon="-1.62936">
        <ele>83</ele>
        <time>2009-07-16T19:39:28Z</time>
      </trkpt>
      <trkpt lat="48.58579" lon="-1.63111">
        <ele>72.3</ele>
        <time>2009-07-16T19:40:31Z</time>
      </trkpt>
      <trkpt lat="48.58712" lon="-1.6324">
        <ele>57.3</ele>
        <time>2009-07-16T19:41:34Z</time>
      </trkpt>
      <trkpt lat="48.58631" lon="-1.63417">
        <ele>58.3</ele>
        <time>2009-07-16T19:42:31Z</time>
      </trkpt>
      <trkpt lat="48.5864" lon="-1.63612">
        <ele>52</ele>
        <time>2009-07-16T19:43:23Z</time>
      </trkpt>
      <trkpt lat="48.58657" lon="-1.63818">
        <ele>57.7</ele>
        <time>2009-07-16T19:44:18Z</time>
      </trkpt>
      <trkpt lat="48.58555" lon="-1.64018">
        <ele>64</ele>
        <time>2009-07-16T19:45:25Z</time>
      </trkpt>
      <trkpt lat="48.58391" lon="-1.64022">
        <ele>69</ele>
        <time>2009-07-16T19:46:30Z</time>
      </trkpt>
      <trkpt lat="48.58246" lon="-1.64127">
        <ele>71.4</ele>
        <time>2009-07-16T19:47:35Z</time>
      </trkpt>
      <trkpt lat="48.58142" lon="-1.64309">
        <ele>69.1</ele>
        <time>2009-07-16T19:48:39Z</time>
      </trkpt>
      <trkpt lat="48.581" lon="-1.64536">
        <ele>68.4</ele>
        <time>2009-07-16T19:49:41Z</time>
      </trkpt>
      <trkpt lat="48.58037" lon="-1.64747">
        <ele>58.4</ele>
        <time>2009-07-16T19:50:42Z</time>
      </trkpt>
      <trkpt lat="48.57972" lon="-1.64958">
        <ele>56</ele>
        <time>2009-07-16T19:51:44Z</time>
      </trkpt>
      <trkpt lat="48.57926" lon="-1.65159">
        <ele>54.3</ele>
        <time>2009-07-16T19:52:40Z</time>
      </trkpt>
      <trkpt lat="48.57996" lon="-1.65377">
        <ele>47.9</ele>
        <time>2009-07-16T19:53:44Z</time>
      </trkpt>
      <trkpt lat="48.58146" lon="-1.65429">
        <ele>44</ele>
        <time>2009-07-16T19:54:46Z</time>
      </trkpt>
      <trkpt lat="48.583" lon="-1.65504">
        <ele>27.8</ele>
        <time>2009-07-16T19:55:51Z</time>
      </trkpt>
      <trkpt lat="48.58458" lon="-1.65528">
        <ele>18</ele>
        <time>2009-07-16T19:56:54Z</time>
      </trkpt>
      <trkpt lat="48.58598" lon="-1.6561">
        <ele>11.1</ele>
        <time>2009-07-16T19:57:54Z</time>
      </trkpt>
      <trkpt lat="48.58686" lon="-1.65651">
        <ele>9</ele>
        <time>2009-07-16T19:58:31Z</time>
      </trkpt>
      <trkpt lat="48.58717" lon="-1.65799">
        <ele>7</ele>
        <time>2009-07-16T19:59:12Z</time>
      </trkpt>
      <trkpt lat="48.58726" lon="-1.65777">
        <ele>7</ele>
        <time>2009-07-16T19:59:19Z</time>
      </trkpt>
      <trkpt lat="48.58728" lon="-1.65774">
        <ele>7.1</ele>
        <time>2009-07-16T19:59:20Z</time>
      </trkpt>
      <trkpt lat="48.5873" lon="-1.65771">
        <ele>7.2</ele>
        <time>2009-07-16T19:59:22Z</time>
      </trkpt>
      <trkpt lat="48.58731" lon="-1.65767">
        <ele>7.3</ele>
        <time>2009-07-16T19:59:23Z</time>
      </trkpt>
      <trkpt lat="48.58733" lon="-1.65763">
        <ele>7.3</ele>
        <time>2009-07-16T19:59:24Z</time>
      </trkpt>
      <trkpt lat="48.58735" lon="-1.65759">
        <ele>7.4</ele>
        <time>2009-07-16T19:59:25Z</time>
      </trkpt>
      <trkpt lat="48.58736" lon="-1.65757">
        <ele>7.4</ele>
        <time>2009-07-16T19:59:26Z</time>
      </trkpt>
      <trkpt lat="48.58738" lon="-1.65756">
        <ele>7.3</ele>
        <time>2009-07-16T19:59:27Z</time>
      </trkpt>
      <trkpt lat="48.58741" lon="-1.65755">
        <ele>7.3</ele>
        <time>2009-07-16T19:59:28Z</time>
      </trkpt>
      <trkpt lat="48.58743" lon="-1.65755">
        <ele>7.2</ele>
        <time>2009-07-16T19:59:29Z</time>
      </trkpt>
      <trkpt lat="48.58746" lon="-1.65754">
        <ele>7.1</ele>
        <time>2009-07-16T19:59:30Z</time>
      </trkpt>
      <trkpt lat="48.58748" lon="-1.65753">
        <ele>7.1</ele>
        <time>2009-07-16T19:59:31Z</time>
      </trkpt>
      <trkpt lat="48.5875" lon="-1.6575">
        <ele>7</ele>
        <time>2009-07-16T19:59:32Z</time>
      </trkpt>
      <trkpt lat="48.58751" lon="-1.65747">
        <ele>7</ele>
        <time>2009-07-16T19:59:33Z</time>
      </trkpt>
      <trkpt lat="48.58753" lon="-1.65744">
        <ele>7</ele>
        <time>2009-07-16T19:59:34Z</time>
      </trkpt>
      <trkpt lat="48.58754" lon="-1.65742">
        <ele>7</ele>
        <time>2009-07-16T19:59:35Z</time>
      </trkpt>
      <trkpt lat="48.58756" lon="-1.65739">
        <ele>7</ele>
        <time>2009-07-16T19:59:36Z</time>
      </trkpt>
      <trkpt lat="48.58757" lon="-1.65737">
        <ele>7</ele>
        <time>2009-07-16T19:59:37Z</time>
      </trkpt>
      <trkpt lat="48.58758" lon="-1.65735">
        <ele>7</ele>
        <time>2009-07-16T19:59:37Z</time>
      </trkpt>
      <trkpt lat="48.58761" lon="-1.65733">
        <ele>7</ele>
        <time>2009-07-16T19:59:38Z</time>
      </trkpt>
      <trkpt lat="48.58763" lon="-1.65732">
        <ele>7</ele>
        <time>2009-07-16T19:59:39Z</time>
      </trkpt>
      <trkpt lat="48.58765" lon="-1.65731">
        <ele>7</ele>
        <time>2009-07-16T19:59:40Z</time>
      </trkpt>
      <trkpt lat="48.58764" lon="-1.65731">
        <ele>7</ele>
        <time>2009-07-16T19:59:41Z</time>
      </trkpt>
    </trkseg>
  </trk>
</gpx>